sensor_id;sensor_type;location;lat;lon;timestamp;temperature;humidity
12384;DHT22;6256;63.808;20.336;2023-03-18T00:00:42;-0.50;99.90
12384;DHT22;6256;63.808;20.336;2023-03-18T00:03:08;-0.50;99.90
12384;DHT22;6256;63.808;20.336;2023-03-18T00:05:35;-0.50;99.90
12384;DHT22;6256;63.808;20.336;2023-03-18T00:08:02;-0.50;99.90
12384;DHT22;6256;63.808;20.336;2023-03-18T00:10:29;-0.50;99.90
12384;DHT22;6256;63.808;20.336;2023-03-18T00:12:56;-0.50;99.90
12384;DHT22;6256;63.808;20.336;2023-03-18T00:15:22;-0.50;99.90
12384;DHT22;6256;63.808;20.336;2023-03-18T00:17:49;-0.50;99.90
12384;DHT22;6256;63.808;20.336;2023-03-18T00:22:43;-0.50;99.90
12384;DHT22;6256;63.808;20.336;2023-03-18T00:25:12;-0.40;99.90
12384;DHT22;6256;63.808;20.336;2023-03-18T00:27:38;-0.40;99.90
12384;DHT22;6256;63.808;20.336;2023-03-18T00:30:05;-0.40;99.90
12384;DHT22;6256;63.808;20.336;2023-03-18T00:32:32;-0.40;99.90
12384;DHT22;6256;63.808;20.336;2023-03-18T00:35:01;-0.40;99.90
12384;DHT22;6256;63.808;20.336;2023-03-18T00:37:27;-0.30;99.90
12384;DHT22;6256;63.808;20.336;2023-03-18T00:39:59;-0.30;99.90
12384;DHT22;6256;63.808;20.336;2023-03-18T00:42:37;-0.30;99.90
12384;DHT22;6256;63.808;20.336;2023-03-18T00:45:06;-0.30;99.90
12384;DHT22;6256;63.808;20.336;2023-03-18T00:47:32;-0.30;99.90
12384;DHT22;6256;63.808;20.336;2023-03-18T00:49:58;-0.20;99.90
12384;DHT22;6256;63.808;20.336;2023-03-18T00:52:24;-0.20;99.90
12384;DHT22;6256;63.808;20.336;2023-03-18T00:54:50;-0.20;99.90
12384;DHT22;6256;63.808;20.336;2023-03-18T00:57:16;-0.10;99.90
12384;DHT22;6256;63.808;20.336;2023-03-18T00:59:42;-0.10;99.90
12384;DHT22;6256;63.808;20.336;2023-03-18T01:02:07;-0.10;99.90
12384;DHT22;6256;63.808;20.336;2023-03-18T01:04:33;0.00;99.90
12384;DHT22;6256;63.808;20.336;2023-03-18T01:06:59;0.00;99.90
12384;DHT22;6256;63.808;20.336;2023-03-18T01:09:26;0.00;99.90
12384;DHT22;6256;63.808;20.336;2023-03-18T01:11:51;0.00;99.90
12384;DHT22;6256;63.808;20.336;2023-03-18T01:14:18;0.10;99.90
12384;DHT22;6256;63.808;20.336;2023-03-18T01:16:43;0.10;99.90
12384;DHT22;6256;63.808;20.336;2023-03-18T01:19:11;0.10;99.90
12384;DHT22;6256;63.808;20.336;2023-03-18T01:21:39;0.10;99.90
12384;DHT22;6256;63.808;20.336;2023-03-18T01:24:04;0.10;99.90
12384;DHT22;6256;63.808;20.336;2023-03-18T01:26:30;0.10;99.90
12384;DHT22;6256;63.808;20.336;2023-03-18T01:28:56;0.10;99.90
12384;DHT22;6256;63.808;20.336;2023-03-18T01:31:22;0.20;99.90
12384;DHT22;6256;63.808;20.336;2023-03-18T01:33:50;0.20;99.90
12384;DHT22;6256;63.808;20.336;2023-03-18T01:36:16;0.20;99.90
12384;DHT22;6256;63.808;20.336;2023-03-18T01:38:42;0.20;99.90
12384;DHT22;6256;63.808;20.336;2023-03-18T01:41:08;0.30;99.90
12384;DHT22;6256;63.808;20.336;2023-03-18T01:43:37;0.30;99.90
12384;DHT22;6256;63.808;20.336;2023-03-18T01:46:36;0.30;99.90
12384;DHT22;6256;63.808;20.336;2023-03-18T01:49:16;0.30;99.90
12384;DHT22;6256;63.808;20.336;2023-03-18T01:51:48;0.40;99.90
12384;DHT22;6256;63.808;20.336;2023-03-18T01:54:15;0.30;99.90
12384;DHT22;6256;63.808;20.336;2023-03-18T01:56:42;0.40;99.90
12384;DHT22;6256;63.808;20.336;2023-03-18T01:59:10;0.40;99.90
12384;DHT22;6256;63.808;20.336;2023-03-18T02:01:53;0.40;99.90
12384;DHT22;6256;63.808;20.336;2023-03-18T02:04:22;0.40;99.90
12384;DHT22;6256;63.808;20.336;2023-03-18T02:06:48;0.40;99.90
12384;DHT22;6256;63.808;20.336;2023-03-18T02:09:16;0.50;99.90
12384;DHT22;6256;63.808;20.336;2023-03-18T02:11:45;0.40;99.90
12384;DHT22;6256;63.808;20.336;2023-03-18T02:14:15;0.40;99.90
12384;DHT22;6256;63.808;20.336;2023-03-18T02:16:54;0.50;99.90
12384;DHT22;6256;63.808;20.336;2023-03-18T02:22:32;0.40;99.90
12384;DHT22;6256;63.808;20.336;2023-03-18T02:25:02;0.50;99.90
12384;DHT22;6256;63.808;20.336;2023-03-18T02:27:34;0.40;99.90
12384;DHT22;6256;63.808;20.336;2023-03-18T02:30:06;0.50;99.90
12384;DHT22;6256;63.808;20.336;2023-03-18T02:32:34;0.50;99.90
12384;DHT22;6256;63.808;20.336;2023-03-18T02:35:04;0.50;99.90
12384;DHT22;6256;63.808;20.336;2023-03-18T02:37:31;0.50;99.90
12384;DHT22;6256;63.808;20.336;2023-03-18T02:40:19;0.50;99.90
12384;DHT22;6256;63.808;20.336;2023-03-18T02:42:46;0.50;99.90
12384;DHT22;6256;63.808;20.336;2023-03-18T02:48:04;0.50;99.90
12384;DHT22;6256;63.808;20.336;2023-03-18T02:50:31;0.50;99.90
12384;DHT22;6256;63.808;20.336;2023-03-18T02:52:58;0.50;99.90
12384;DHT22;6256;63.808;20.336;2023-03-18T02:55:24;0.50;99.90
12384;DHT22;6256;63.808;20.336;2023-03-18T02:57:49;0.50;99.90
12384;DHT22;6256;63.808;20.336;2023-03-18T03:00:15;0.50;99.90
12384;DHT22;6256;63.808;20.336;2023-03-18T03:02:41;0.50;99.90
12384;DHT22;6256;63.808;20.336;2023-03-18T03:05:07;0.50;99.90
12384;DHT22;6256;63.808;20.336;2023-03-18T03:07:33;0.50;99.90
12384;DHT22;6256;63.808;20.336;2023-03-18T03:09:59;0.60;99.90
12384;DHT22;6256;63.808;20.336;2023-03-18T03:12:25;0.60;99.90
12384;DHT22;6256;63.808;20.336;2023-03-18T03:14:51;0.60;99.90
12384;DHT22;6256;63.808;20.336;2023-03-18T03:17:17;0.60;99.90
12384;DHT22;6256;63.808;20.336;2023-03-18T03:19:43;0.60;99.90
12384;DHT22;6256;63.808;20.336;2023-03-18T03:22:09;0.60;99.90
12384;DHT22;6256;63.808;20.336;2023-03-18T03:24:35;0.60;99.90
12384;DHT22;6256;63.808;20.336;2023-03-18T03:27:01;0.60;99.90
12384;DHT22;6256;63.808;20.336;2023-03-18T03:29:26;0.60;99.90
12384;DHT22;6256;63.808;20.336;2023-03-18T03:31:52;0.60;99.90
12384;DHT22;6256;63.808;20.336;2023-03-18T03:34:17;0.60;99.90
12384;DHT22;6256;63.808;20.336;2023-03-18T03:36:43;0.60;99.90
12384;DHT22;6256;63.808;20.336;2023-03-18T03:39:09;0.60;99.90
12384;DHT22;6256;63.808;20.336;2023-03-18T03:41:35;0.60;99.90
12384;DHT22;6256;63.808;20.336;2023-03-18T03:44:01;0.60;99.90
12384;DHT22;6256;63.808;20.336;2023-03-18T03:46:26;0.60;99.90
12384;DHT22;6256;63.808;20.336;2023-03-18T03:48:52;0.60;99.90
12384;DHT22;6256;63.808;20.336;2023-03-18T03:51:18;0.60;99.90
12384;DHT22;6256;63.808;20.336;2023-03-18T03:53:44;0.60;99.90
12384;DHT22;6256;63.808;20.336;2023-03-18T03:56:10;0.60;99.90
12384;DHT22;6256;63.808;20.336;2023-03-18T03:58:36;0.60;99.90
12384;DHT22;6256;63.808;20.336;2023-03-18T04:01:02;0.60;99.90
12384;DHT22;6256;63.808;20.336;2023-03-18T04:03:30;0.60;99.90
12384;DHT22;6256;63.808;20.336;2023-03-18T04:05:56;0.60;99.90
12384;DHT22;6256;63.808;20.336;2023-03-18T04:08:22;0.60;99.90
12384;DHT22;6256;63.808;20.336;2023-03-18T04:10:48;0.60;99.90
12384;DHT22;6256;63.808;20.336;2023-03-18T04:13:13;0.70;99.90
12384;DHT22;6256;63.808;20.336;2023-03-18T04:15:39;0.70;99.90
12384;DHT22;6256;63.808;20.336;2023-03-18T04:18:05;0.70;99.90
12384;DHT22;6256;63.808;20.336;2023-03-18T04:20:35;0.70;99.90
12384;DHT22;6256;63.808;20.336;2023-03-18T04:23:01;0.70;99.90
12384;DHT22;6256;63.808;20.336;2023-03-18T04:25:27;0.70;99.90
12384;DHT22;6256;63.808;20.336;2023-03-18T04:27:53;0.70;99.90
12384;DHT22;6256;63.808;20.336;2023-03-18T04:30:19;0.70;99.90
12384;DHT22;6256;63.808;20.336;2023-03-18T04:32:48;0.80;99.90
12384;DHT22;6256;63.808;20.336;2023-03-18T04:35:15;0.70;99.90
12384;DHT22;6256;63.808;20.336;2023-03-18T04:37:41;0.80;99.90
12384;DHT22;6256;63.808;20.336;2023-03-18T04:40:08;0.80;99.90
12384;DHT22;6256;63.808;20.336;2023-03-18T04:42:35;0.70;99.90
12384;DHT22;6256;63.808;20.336;2023-03-18T04:45:01;0.80;99.90
12384;DHT22;6256;63.808;20.336;2023-03-18T04:47:27;0.80;99.90
12384;DHT22;6256;63.808;20.336;2023-03-18T04:49:53;0.80;99.90
12384;DHT22;6256;63.808;20.336;2023-03-18T04:52:19;0.80;99.90
12384;DHT22;6256;63.808;20.336;2023-03-18T04:54:45;0.80;99.90
12384;DHT22;6256;63.808;20.336;2023-03-18T04:57:10;0.80;99.90
12384;DHT22;6256;63.808;20.336;2023-03-18T04:59:37;0.80;99.90
12384;DHT22;6256;63.808;20.336;2023-03-18T05:02:02;0.80;99.90
12384;DHT22;6256;63.808;20.336;2023-03-18T05:04:29;0.80;99.90
12384;DHT22;6256;63.808;20.336;2023-03-18T05:06:55;0.80;99.90
12384;DHT22;6256;63.808;20.336;2023-03-18T05:09:20;0.80;99.90
12384;DHT22;6256;63.808;20.336;2023-03-18T05:11:47;0.90;99.90
12384;DHT22;6256;63.808;20.336;2023-03-18T05:14:13;0.80;99.90
12384;DHT22;6256;63.808;20.336;2023-03-18T05:16:39;0.80;99.90
12384;DHT22;6256;63.808;20.336;2023-03-18T05:19:06;0.90;99.90
12384;DHT22;6256;63.808;20.336;2023-03-18T05:21:33;0.90;99.90
12384;DHT22;6256;63.808;20.336;2023-03-18T05:23:58;0.80;99.90
12384;DHT22;6256;63.808;20.336;2023-03-18T05:26:24;0.90;99.90
12384;DHT22;6256;63.808;20.336;2023-03-18T05:28:50;0.80;99.90
12384;DHT22;6256;63.808;20.336;2023-03-18T05:31:17;0.80;99.90
12384;DHT22;6256;63.808;20.336;2023-03-18T05:33:42;0.80;99.90
12384;DHT22;6256;63.808;20.336;2023-03-18T05:36:08;0.80;99.90
12384;DHT22;6256;63.808;20.336;2023-03-18T05:38:34;0.80;99.90
12384;DHT22;6256;63.808;20.336;2023-03-18T05:41:00;0.80;99.90
12384;DHT22;6256;63.808;20.336;2023-03-18T05:43:25;0.90;99.90
12384;DHT22;6256;63.808;20.336;2023-03-18T05:45:52;0.90;99.90
12384;DHT22;6256;63.808;20.336;2023-03-18T05:48:19;0.80;99.90
12384;DHT22;6256;63.808;20.336;2023-03-18T05:50:45;0.90;99.90
12384;DHT22;6256;63.808;20.336;2023-03-18T05:53:12;0.90;99.90
12384;DHT22;6256;63.808;20.336;2023-03-18T05:55:40;0.90;99.90
12384;DHT22;6256;63.808;20.336;2023-03-18T05:58:07;0.90;99.90
12384;DHT22;6256;63.808;20.336;2023-03-18T06:00:33;0.90;99.90
12384;DHT22;6256;63.808;20.336;2023-03-18T06:03:00;0.90;99.90
12384;DHT22;6256;63.808;20.336;2023-03-18T06:05:26;1.00;99.90
12384;DHT22;6256;63.808;20.336;2023-03-18T06:07:53;0.90;99.90
12384;DHT22;6256;63.808;20.336;2023-03-18T06:10:20;1.00;99.90
12384;DHT22;6256;63.808;20.336;2023-03-18T06:12:47;0.90;99.90
12384;DHT22;6256;63.808;20.336;2023-03-18T06:15:14;0.90;99.90
12384;DHT22;6256;63.808;20.336;2023-03-18T06:17:40;0.90;99.90
12384;DHT22;6256;63.808;20.336;2023-03-18T06:20:07;0.90;99.90
12384;DHT22;6256;63.808;20.336;2023-03-18T06:22:34;0.90;99.90
12384;DHT22;6256;63.808;20.336;2023-03-18T06:25:00;0.90;99.90
12384;DHT22;6256;63.808;20.336;2023-03-18T06:27:26;0.90;99.90
12384;DHT22;6256;63.808;20.336;2023-03-18T06:29:55;0.90;99.90
12384;DHT22;6256;63.808;20.336;2023-03-18T06:32:21;0.90;99.90
12384;DHT22;6256;63.808;20.336;2023-03-18T06:34:46;0.90;99.90
12384;DHT22;6256;63.808;20.336;2023-03-18T06:37:12;0.90;99.90
12384;DHT22;6256;63.808;20.336;2023-03-18T06:39:39;0.90;99.90
12384;DHT22;6256;63.808;20.336;2023-03-18T06:42:05;0.90;99.90
12384;DHT22;6256;63.808;20.336;2023-03-18T06:44:31;0.90;99.90
12384;DHT22;6256;63.808;20.336;2023-03-18T06:46:57;0.90;99.90
12384;DHT22;6256;63.808;20.336;2023-03-18T06:49:22;1.00;99.90
12384;DHT22;6256;63.808;20.336;2023-03-18T06:51:48;1.00;99.90
12384;DHT22;6256;63.808;20.336;2023-03-18T06:54:14;0.90;99.90
12384;DHT22;6256;63.808;20.336;2023-03-18T06:56:41;1.00;99.90
12384;DHT22;6256;63.808;20.336;2023-03-18T06:59:08;1.00;99.90
12384;DHT22;6256;63.808;20.336;2023-03-18T07:01:35;1.00;99.90
12384;DHT22;6256;63.808;20.336;2023-03-18T07:04:01;0.90;99.90
12384;DHT22;6256;63.808;20.336;2023-03-18T07:06:31;1.00;99.90
12384;DHT22;6256;63.808;20.336;2023-03-18T07:08:57;1.00;99.90
12384;DHT22;6256;63.808;20.336;2023-03-18T07:11:23;1.00;99.90
12384;DHT22;6256;63.808;20.336;2023-03-18T07:13:50;1.00;99.90
12384;DHT22;6256;63.808;20.336;2023-03-18T07:16:16;1.00;99.90
12384;DHT22;6256;63.808;20.336;2023-03-18T07:18:41;1.00;99.90
12384;DHT22;6256;63.808;20.336;2023-03-18T07:21:07;1.00;99.90
12384;DHT22;6256;63.808;20.336;2023-03-18T07:23:34;1.00;99.90
12384;DHT22;6256;63.808;20.336;2023-03-18T07:26:00;1.00;99.90
12384;DHT22;6256;63.808;20.336;2023-03-18T07:28:25;1.10;99.90
12384;DHT22;6256;63.808;20.336;2023-03-18T07:30:51;1.10;99.90
12384;DHT22;6256;63.808;20.336;2023-03-18T07:33:17;1.10;99.90
12384;DHT22;6256;63.808;20.336;2023-03-18T07:35:42;1.10;99.90
12384;DHT22;6256;63.808;20.336;2023-03-18T07:38:09;1.10;99.90
12384;DHT22;6256;63.808;20.336;2023-03-18T07:40:36;1.10;99.90
12384;DHT22;6256;63.808;20.336;2023-03-18T07:43:04;1.10;99.90
12384;DHT22;6256;63.808;20.336;2023-03-18T07:45:29;1.10;99.90
12384;DHT22;6256;63.808;20.336;2023-03-18T07:47:55;1.20;99.90
12384;DHT22;6256;63.808;20.336;2023-03-18T07:50:22;1.20;99.90
12384;DHT22;6256;63.808;20.336;2023-03-18T07:52:47;1.20;99.90
12384;DHT22;6256;63.808;20.336;2023-03-18T07:55:13;1.20;99.90
12384;DHT22;6256;63.808;20.336;2023-03-18T07:57:40;1.20;99.90
12384;DHT22;6256;63.808;20.336;2023-03-18T08:00:07;1.20;99.90
12384;DHT22;6256;63.808;20.336;2023-03-18T08:02:33;1.20;99.90
12384;DHT22;6256;63.808;20.336;2023-03-18T08:05:01;1.20;99.90
12384;DHT22;6256;63.808;20.336;2023-03-18T08:07:28;1.20;99.90
12384;DHT22;6256;63.808;20.336;2023-03-18T08:09:55;1.30;99.90
12384;DHT22;6256;63.808;20.336;2023-03-18T08:12:21;1.20;99.90
12384;DHT22;6256;63.808;20.336;2023-03-18T08:14:46;1.20;99.90
12384;DHT22;6256;63.808;20.336;2023-03-18T08:17:13;1.30;99.90
12384;DHT22;6256;63.808;20.336;2023-03-18T08:19:38;1.30;99.90
12384;DHT22;6256;63.808;20.336;2023-03-18T08:22:04;1.40;99.90
12384;DHT22;6256;63.808;20.336;2023-03-18T08:24:30;1.40;99.90
12384;DHT22;6256;63.808;20.336;2023-03-18T08:26:57;1.40;99.90
12384;DHT22;6256;63.808;20.336;2023-03-18T08:29:22;1.40;99.90
12384;DHT22;6256;63.808;20.336;2023-03-18T08:31:48;1.30;99.90
12384;DHT22;6256;63.808;20.336;2023-03-18T08:34:14;1.30;99.90
12384;DHT22;6256;63.808;20.336;2023-03-18T08:36:41;1.40;99.90
12384;DHT22;6256;63.808;20.336;2023-03-18T08:39:07;1.40;99.90
12384;DHT22;6256;63.808;20.336;2023-03-18T08:41:34;1.50;99.90
12384;DHT22;6256;63.808;20.336;2023-03-18T08:44:01;1.50;99.90
12384;DHT22;6256;63.808;20.336;2023-03-18T08:46:28;1.50;99.90
12384;DHT22;6256;63.808;20.336;2023-03-18T08:48:54;1.50;99.90
12384;DHT22;6256;63.808;20.336;2023-03-18T08:51:20;1.50;99.90
12384;DHT22;6256;63.808;20.336;2023-03-18T08:53:47;1.60;99.90
12384;DHT22;6256;63.808;20.336;2023-03-18T08:56:13;1.60;99.90
12384;DHT22;6256;63.808;20.336;2023-03-18T08:58:42;1.60;99.90
12384;DHT22;6256;63.808;20.336;2023-03-18T09:01:10;1.60;99.90
12384;DHT22;6256;63.808;20.336;2023-03-18T09:03:36;1.60;99.90
12384;DHT22;6256;63.808;20.336;2023-03-18T09:06:01;1.70;99.90
12384;DHT22;6256;63.808;20.336;2023-03-18T09:08:28;1.70;99.90
12384;DHT22;6256;63.808;20.336;2023-03-18T09:10:55;1.70;99.90
12384;DHT22;6256;63.808;20.336;2023-03-18T09:13:21;1.70;99.90
12384;DHT22;6256;63.808;20.336;2023-03-18T09:15:47;1.70;99.90
12384;DHT22;6256;63.808;20.336;2023-03-18T09:18:14;1.80;99.90
12384;DHT22;6256;63.808;20.336;2023-03-18T09:20:41;1.80;99.90
12384;DHT22;6256;63.808;20.336;2023-03-18T09:23:09;1.80;99.90
12384;DHT22;6256;63.808;20.336;2023-03-18T09:25:35;1.90;99.90
12384;DHT22;6256;63.808;20.336;2023-03-18T09:28:01;1.90;99.90
12384;DHT22;6256;63.808;20.336;2023-03-18T09:30:27;1.80;99.90
12384;DHT22;6256;63.808;20.336;2023-03-18T09:32:53;1.80;99.90
12384;DHT22;6256;63.808;20.336;2023-03-18T09:35:19;1.90;99.90
12384;DHT22;6256;63.808;20.336;2023-03-18T09:37:44;2.00;99.90
12384;DHT22;6256;63.808;20.336;2023-03-18T09:40:26;1.90;99.90
12384;DHT22;6256;63.808;20.336;2023-03-18T09:43:18;2.00;99.90
12384;DHT22;6256;63.808;20.336;2023-03-18T09:54:06;2.10;99.90
12384;DHT22;6256;63.808;20.336;2023-03-18T09:56:34;2.20;99.90
12384;DHT22;6256;63.808;20.336;2023-03-18T10:01:37;2.30;99.90
12384;DHT22;6256;63.808;20.336;2023-03-18T10:04:22;2.30;99.90
12384;DHT22;6256;63.808;20.336;2023-03-18T10:06:53;2.30;99.90
12384;DHT22;6256;63.808;20.336;2023-03-18T10:09:32;2.30;99.90
12384;DHT22;6256;63.808;20.336;2023-03-18T10:12:10;2.50;99.90
12384;DHT22;6256;63.808;20.336;2023-03-18T10:14:47;2.50;99.90
12384;DHT22;6256;63.808;20.336;2023-03-18T10:17:18;2.60;99.90
12384;DHT22;6256;63.808;20.336;2023-03-18T10:19:58;2.50;99.90
12384;DHT22;6256;63.808;20.336;2023-03-18T10:30:46;2.70;99.90
12384;DHT22;6256;63.808;20.336;2023-03-18T10:33:44;2.70;99.90
12384;DHT22;6256;63.808;20.336;2023-03-18T10:36:21;2.60;99.90
12384;DHT22;6256;63.808;20.336;2023-03-18T10:38:49;2.70;99.90
12384;DHT22;6256;63.808;20.336;2023-03-18T10:41:19;2.60;99.90
12384;DHT22;6256;63.808;20.336;2023-03-18T10:43:46;2.70;99.90
12384;DHT22;6256;63.808;20.336;2023-03-18T10:46:14;2.70;99.90
12384;DHT22;6256;63.808;20.336;2023-03-18T10:48:51;2.70;99.90
12384;DHT22;6256;63.808;20.336;2023-03-18T10:54:11;2.80;99.90
12384;DHT22;6256;63.808;20.336;2023-03-18T10:56:39;2.70;99.90
12384;DHT22;6256;63.808;20.336;2023-03-18T10:59:16;2.70;99.90
12384;DHT22;6256;63.808;20.336;2023-03-18T11:05:14;2.80;99.90
12384;DHT22;6256;63.808;20.336;2023-03-18T11:07:57;2.80;99.90
12384;DHT22;6256;63.808;20.336;2023-03-18T11:10:30;2.80;99.90
12384;DHT22;6256;63.808;20.336;2023-03-18T11:13:00;2.90;99.90
12384;DHT22;6256;63.808;20.336;2023-03-18T11:15:37;2.90;99.90
12384;DHT22;6256;63.808;20.336;2023-03-18T11:18:04;2.90;99.90
12384;DHT22;6256;63.808;20.336;2023-03-18T11:20:38;2.90;99.90
12384;DHT22;6256;63.808;20.336;2023-03-18T11:23:17;2.90;99.90
12384;DHT22;6256;63.808;20.336;2023-03-18T11:25:46;2.90;99.90
12384;DHT22;6256;63.808;20.336;2023-03-18T11:28:21;3.00;99.90
12384;DHT22;6256;63.808;20.336;2023-03-18T11:30:50;3.10;99.90
12384;DHT22;6256;63.808;20.336;2023-03-18T11:33:23;3.20;99.90
12384;DHT22;6256;63.808;20.336;2023-03-18T11:35:52;3.10;99.90
12384;DHT22;6256;63.808;20.336;2023-03-18T11:38:31;3.40;99.90
12384;DHT22;6256;63.808;20.336;2023-03-18T11:41:22;3.60;99.90
12384;DHT22;6256;63.808;20.336;2023-03-18T11:43:59;3.70;99.90
12384;DHT22;6256;63.808;20.336;2023-03-18T11:49:03;3.80;99.90
12384;DHT22;6256;63.808;20.336;2023-03-18T11:57:13;4.20;99.90
12384;DHT22;6256;63.808;20.336;2023-03-18T12:08:15;4.50;99.90
12384;DHT22;6256;63.808;20.336;2023-03-18T12:21:57;4.20;99.90
12384;DHT22;6256;63.808;20.336;2023-03-18T12:27:16;4.20;99.90
12384;DHT22;6256;63.808;20.336;2023-03-18T12:32:41;4.10;99.90
12384;DHT22;6256;63.808;20.336;2023-03-18T12:38:24;4.50;99.90
12384;DHT22;6256;63.808;20.336;2023-03-18T12:41:16;4.80;99.90
12384;DHT22;6256;63.808;20.336;2023-03-18T12:43:59;5.00;99.90
12384;DHT22;6256;63.808;20.336;2023-03-18T12:46:36;5.10;99.90
12384;DHT22;6256;63.808;20.336;2023-03-18T12:49:38;5.00;99.90
12384;DHT22;6256;63.808;20.336;2023-03-18T12:52:10;4.90;99.90
12384;DHT22;6256;63.808;20.336;2023-03-18T12:54:47;5.00;99.90
12384;DHT22;6256;63.808;20.336;2023-03-18T13:05:29;5.00;99.90
12384;DHT22;6256;63.808;20.336;2023-03-18T13:10:32;5.30;99.90
12384;DHT22;6256;63.808;20.336;2023-03-18T13:13:00;5.40;99.90
12384;DHT22;6256;63.808;20.336;2023-03-18T13:18:01;5.00;99.90
12384;DHT22;6256;63.808;20.336;2023-03-18T13:20:35;4.90;99.90
12384;DHT22;6256;63.808;20.336;2023-03-18T13:28:54;4.90;99.90
12384;DHT22;6256;63.808;20.336;2023-03-18T13:31:48;4.90;99.90
12384;DHT22;6256;63.808;20.336;2023-03-18T13:37:16;4.60;99.90
12384;DHT22;6256;63.808;20.336;2023-03-18T13:42:56;4.40;99.90
12384;DHT22;6256;63.808;20.336;2023-03-18T13:45:36;4.30;99.90
12384;DHT22;6256;63.808;20.336;2023-03-18T13:48:06;4.20;99.90
12384;DHT22;6256;63.808;20.336;2023-03-18T13:50:41;4.30;99.90
12384;DHT22;6256;63.808;20.336;2023-03-18T13:53:27;4.30;99.90
12384;DHT22;6256;63.808;20.336;2023-03-18T13:58:45;4.10;99.90
12384;DHT22;6256;63.808;20.336;2023-03-18T14:06:18;3.70;99.90
12384;DHT22;6256;63.808;20.336;2023-03-18T14:08:51;3.80;99.90
12384;DHT22;6256;63.808;20.336;2023-03-18T14:13:58;3.90;99.90
12384;DHT22;6256;63.808;20.336;2023-03-18T14:19:36;4.20;99.90
12384;DHT22;6256;63.808;20.336;2023-03-18T14:22:26;4.30;99.90
12384;DHT22;6256;63.808;20.336;2023-03-18T14:27:53;4.10;99.90
12384;DHT22;6256;63.808;20.336;2023-03-18T14:35:46;4.30;99.90
12384;DHT22;6256;63.808;20.336;2023-03-18T14:38:23;4.20;99.90
12384;DHT22;6256;63.808;20.336;2023-03-18T14:40:55;4.20;99.90
12384;DHT22;6256;63.808;20.336;2023-03-18T14:43:53;4.00;99.90
12384;DHT22;6256;63.808;20.336;2023-03-18T14:46:23;3.70;99.90
12384;DHT22;6256;63.808;20.336;2023-03-18T14:48:54;3.60;99.90
12384;DHT22;6256;63.808;20.336;2023-03-18T14:51:21;3.60;99.90
12384;DHT22;6256;63.808;20.336;2023-03-18T14:56:28;3.70;99.90
12384;DHT22;6256;63.808;20.336;2023-03-18T14:58:54;3.70;99.90
12384;DHT22;6256;63.808;20.336;2023-03-18T15:01:32;3.70;99.90
12384;DHT22;6256;63.808;20.336;2023-03-18T15:03:59;3.70;99.90
12384;DHT22;6256;63.808;20.336;2023-03-18T15:06:26;3.60;99.90
12384;DHT22;6256;63.808;20.336;2023-03-18T15:09:00;3.50;99.90
12384;DHT22;6256;63.808;20.336;2023-03-18T15:11:27;3.50;99.90
12384;DHT22;6256;63.808;20.336;2023-03-18T15:13:55;3.30;99.90
12384;DHT22;6256;63.808;20.336;2023-03-18T15:16:23;3.30;99.90
12384;DHT22;6256;63.808;20.336;2023-03-18T15:18:54;3.20;99.90
12384;DHT22;6256;63.808;20.336;2023-03-18T15:21:27;3.20;99.90
12384;DHT22;6256;63.808;20.336;2023-03-18T15:23:56;3.30;99.90
12384;DHT22;6256;63.808;20.336;2023-03-18T15:26:32;3.30;99.90
12384;DHT22;6256;63.808;20.336;2023-03-18T15:29:00;3.20;99.90
12384;DHT22;6256;63.808;20.336;2023-03-18T15:31:41;3.30;99.90
12384;DHT22;6256;63.808;20.336;2023-03-18T15:34:28;3.30;99.90
12384;DHT22;6256;63.808;20.336;2023-03-18T15:36:58;3.30;99.90
12384;DHT22;6256;63.808;20.336;2023-03-18T15:39:34;3.30;99.90
12384;DHT22;6256;63.808;20.336;2023-03-18T15:42:01;3.20;99.90
12384;DHT22;6256;63.808;20.336;2023-03-18T15:44:34;3.20;99.90
12384;DHT22;6256;63.808;20.336;2023-03-18T15:47:11;3.10;99.90
12384;DHT22;6256;63.808;20.336;2023-03-18T15:52:40;3.00;99.90
12384;DHT22;6256;63.808;20.336;2023-03-18T15:55:45;2.90;99.90
12384;DHT22;6256;63.808;20.336;2023-03-18T15:58:19;2.70;99.90
12384;DHT22;6256;63.808;20.336;2023-03-18T16:00:46;2.70;99.90
12384;DHT22;6256;63.808;20.336;2023-03-18T16:03:20;2.70;99.90
12384;DHT22;6256;63.808;20.336;2023-03-18T16:05:47;2.70;99.90
12384;DHT22;6256;63.808;20.336;2023-03-18T16:08:17;2.70;99.90
12384;DHT22;6256;63.808;20.336;2023-03-18T16:10:49;2.60;99.90
12384;DHT22;6256;63.808;20.336;2023-03-18T16:13:24;2.60;99.90
12384;DHT22;6256;63.808;20.336;2023-03-18T16:15:51;2.60;99.90
12384;DHT22;6256;63.808;20.336;2023-03-18T16:18:18;2.60;99.90
12384;DHT22;6256;63.808;20.336;2023-03-18T16:20:44;2.50;99.90
12384;DHT22;6256;63.808;20.336;2023-03-18T16:23:12;2.50;99.90
12384;DHT22;6256;63.808;20.336;2023-03-18T16:25:43;2.50;99.90
12384;DHT22;6256;63.808;20.336;2023-03-18T16:28:23;2.50;99.90
12384;DHT22;6256;63.808;20.336;2023-03-18T16:30:50;2.50;99.90
12384;DHT22;6256;63.808;20.336;2023-03-18T16:33:18;2.50;99.90
12384;DHT22;6256;63.808;20.336;2023-03-18T16:35:58;2.50;99.90
12384;DHT22;6256;63.808;20.336;2023-03-18T16:38:25;2.50;99.90
12384;DHT22;6256;63.808;20.336;2023-03-18T16:40:51;2.40;99.90
12384;DHT22;6256;63.808;20.336;2023-03-18T16:43:28;2.40;99.90
12384;DHT22;6256;63.808;20.336;2023-03-18T16:46:00;2.40;99.90
12384;DHT22;6256;63.808;20.336;2023-03-18T16:48:28;2.30;99.90
12384;DHT22;6256;63.808;20.336;2023-03-18T16:50:54;2.40;99.90
12384;DHT22;6256;63.808;20.336;2023-03-18T16:53:27;2.40;99.90
12384;DHT22;6256;63.808;20.336;2023-03-18T16:55:56;2.40;99.90
12384;DHT22;6256;63.808;20.336;2023-03-18T16:58:26;2.30;99.90
12384;DHT22;6256;63.808;20.336;2023-03-18T17:00:53;2.30;99.90
12384;DHT22;6256;63.808;20.336;2023-03-18T17:03:18;2.30;99.90
12384;DHT22;6256;63.808;20.336;2023-03-18T17:05:46;2.30;99.90
12384;DHT22;6256;63.808;20.336;2023-03-18T17:08:14;2.30;99.90
12384;DHT22;6256;63.808;20.336;2023-03-18T17:10:40;2.30;99.90
12384;DHT22;6256;63.808;20.336;2023-03-18T17:13:14;2.30;99.90
12384;DHT22;6256;63.808;20.336;2023-03-18T17:15:41;2.30;99.90
12384;DHT22;6256;63.808;20.336;2023-03-18T17:18:13;2.20;99.90
12384;DHT22;6256;63.808;20.336;2023-03-18T17:20:39;2.20;99.90
12384;DHT22;6256;63.808;20.336;2023-03-18T17:23:06;2.20;99.90
12384;DHT22;6256;63.808;20.336;2023-03-18T17:25:34;2.20;99.90
12384;DHT22;6256;63.808;20.336;2023-03-18T17:28:04;2.20;99.90
12384;DHT22;6256;63.808;20.336;2023-03-18T17:32:59;2.20;99.90
12384;DHT22;6256;63.808;20.336;2023-03-18T17:35:25;2.20;99.90
12384;DHT22;6256;63.808;20.336;2023-03-18T17:37:52;2.10;99.90
12384;DHT22;6256;63.808;20.336;2023-03-18T17:40:19;2.00;99.90
12384;DHT22;6256;63.808;20.336;2023-03-18T17:42:47;2.00;99.90
12384;DHT22;6256;63.808;20.336;2023-03-18T17:45:29;2.00;99.90
12384;DHT22;6256;63.808;20.336;2023-03-18T17:48:21;2.00;99.90
12384;DHT22;6256;63.808;20.336;2023-03-18T17:50:50;1.90;99.90
12384;DHT22;6256;63.808;20.336;2023-03-18T17:53:25;1.90;99.90
12384;DHT22;6256;63.808;20.336;2023-03-18T17:55:52;1.90;99.90
12384;DHT22;6256;63.808;20.336;2023-03-18T17:58:20;1.90;99.90
12384;DHT22;6256;63.808;20.336;2023-03-18T18:00:46;1.90;99.90
12384;DHT22;6256;63.808;20.336;2023-03-18T18:03:24;1.90;99.90